Time;durP1;ratioP1;P1;durP2;ratioP2;P2;SDS_P1;SDS_P2;PMS_P1;PMS_P2;Temp;Humidity;BMP_temperature;BMP_pressure;BME280_temperature;BME280_humidity;BME280_pressure;Samples;Min_cycle;Max_cycle;Signal;HPM_P1;HPM_P2
2022/07/31 00:00:25;;;;;;;;;22.00;21.20;;;;;27.03;nan;99176.91;5131596;27;8861;-74
2022/07/31 00:03:04;;;;;;;;;24.40;22.60;;;;;27.16;nan;99185.72;5135936;27;8839;-74
2022/07/31 00:05:33;;;;;;;;;23.80;22.60;;;;;27.19;nan;99185.50;5136516;27;8842;-73
2022/07/31 00:08:10;;;;;;;;;23.40;23.20;;;;;26.95;nan;99181.97;5133448;27;8850;-74
2022/07/31 00:10:39;;;;;;;;;25.00;24.20;;;;;27.16;nan;99190.22;5134197;27;9615;-75
2022/07/31 00:13:07;;;;;;;;;26.20;25.80;;;;;26.98;nan;99182.63;5132536;27;8827;-72
2022/07/31 00:15:37;;;;;;;;;25.20;24.40;;;;;27.22;nan;99182.59;5152515;27;8855;-72
2022/07/31 00:18:07;;;;;;;;;25.60;24.00;;;;;27.21;nan;99188.06;5151963;27;8873;-73
2022/07/31 00:20:36;;;;;;;;;28.00;26.00;;;;;27.05;nan;99183.00;5151864;27;8957;-73
2022/07/31 00:23:05;;;;;;;;;23.60;22.40;;;;;27.32;nan;99196.19;5098934;27;8835;-74
2022/07/31 00:25:35;;;;;;;;;25.60;24.60;;;;;27.02;nan;99197.47;5151083;27;8831;-73
2022/07/31 00:28:04;;;;;;;;;27.60;26.40;;;;;27.21;nan;99190.75;5097565;27;8831;-72
2022/07/31 00:30:32;;;;;;;;;25.50;22.00;;;;;26.53;nan;99194.84;5151711;27;8875;-73
2022/07/31 00:33:01;;;;;;;;;22.40;21.60;;;;;26.97;nan;99199.63;5132986;27;9669;-73
2022/07/31 00:35:30;;;;;;;;;22.20;21.40;;;;;27.01;nan;99192.22;5087180;28;8864;-73
2022/07/31 00:37:58;;;;;;;;;20.40;20.40;;;;;27.08;nan;99193.47;5087264;28;8944;-72
2022/07/31 00:40:49;;;;;;;;;22.00;21.60;;;;;27.11;nan;99195.94;5070491;28;8838;-73
2022/07/31 00:43:18;;;;;;;;;21.40;21.00;;;;;26.79;nan;99198.34;5070228;28;8884;-71
2022/07/31 00:45:48;;;;;;;;;22.20;21.20;;;;;26.87;nan;99195.09;5072313;28;8851;-72
2022/07/31 00:48:16;;;;;;;;;20.80;19.20;;;;;26.84;nan;99194.34;5033911;28;8875;-74
2022/07/31 00:50:45;;;;;;;;;21.20;21.20;;;;;26.93;nan;99199.97;5049871;28;8860;-73
2022/07/31 00:53:13;;;;;;;;;21.40;20.20;;;;;27.16;nan;99200.94;5050197;28;8948;-73
2022/07/31 00:55:42;;;;;;;;;19.00;18.40;;;;;27.04;nan;99202.72;5077608;28;8849;-71
2022/07/31 00:58:20;;;;;;;;;23.20;20.00;;;;;26.96;nan;99210.47;5087521;28;8834;-72
2022/07/31 01:00:50;;;;;;;;;21.20;18.80;;;;;27.03;nan;99206.34;5070229;28;8802;-72
2022/07/31 01:03:19;;;;;;;;;17.80;16.00;;;;;26.85;nan;99211.25;5068775;28;8864;-73
2022/07/31 01:05:47;;;;;;;;;16.40;15.20;;;;;26.76;nan;99209.25;5094836;27;8853;-73
2022/07/31 01:08:16;;;;;;;;;20.20;19.00;;;;;26.66;nan;99213.56;5080077;27;8827;-72
2022/07/31 01:10:53;;;;;;;;;18.20;18.00;;;;;26.98;nan;99213.88;5130439;27;8845;-72
2022/07/31 01:13:32;;;;;;;;;18.40;17.80;;;;;26.82;nan;99211.47;5130040;27;8893;-72
2022/07/31 01:16:04;;;;;;;;;20.80;20.80;;;;;26.76;nan;99212.75;5111766;27;8857;-72
2022/07/31 01:18:37;;;;;;;;;16.60;16.60;;;;;26.71;nan;99208.72;5111407;27;8887;-71
2022/07/31 01:21:11;;;;;;;;;19.20;17.80;;;;;26.84;nan;99213.06;5126452;27;8952;-72
2022/07/31 01:24:12;;;;;;;;;17.80;17.00;;;;;26.54;nan;99213.47;5131696;27;8850;-72
2022/07/31 01:27:17;;;;;;;;;18.20;18.20;;;;;26.94;nan;99218.59;5150502;27;8922;-72
2022/07/31 01:29:53;;;;;;;;;19.40;19.00;;;;;26.92;nan;99211.63;5132220;27;8839;-73
2022/07/31 01:32:27;;;;;;;;;18.00;18.00;;;;;26.66;nan;99206.38;5097038;27;8847;-71
2022/07/31 01:35:06;;;;;;;;;18.40;18.20;;;;;26.51;nan;99205.66;5105307;28;8852;-72
2022/07/31 01:37:40;;;;;;;;;18.20;15.80;;;;;26.62;nan;99210.25;5088773;28;8844;-71
2022/07/31 01:40:14;;;;;;;;;18.20;16.20;;;;;25.90;nan;99210.81;5106563;28;8842;-73
2022/07/31 01:42:47;;;;;;;;;18.00;17.40;;;;;25.67;nan;99213.25;5056174;28;8895;-72
2022/07/31 01:45:21;;;;;;;;;15.40;15.40;;;;;25.94;nan;99208.81;5089404;28;8875;-73
2022/07/31 01:47:51;;;;;;;;;15.80;15.80;;;;;26.01;nan;99216.31;5089256;28;8839;-72
2022/07/31 01:50:22;;;;;;;;;17.80;17.60;;;;;26.35;nan;99213.03;5105003;28;8866;-73
2022/07/31 01:53:15;;;;;;;;;15.60;15.60;;;;;26.00;nan;99227.94;5106340;28;8867;-72
2022/07/31 01:55:47;;;;;;;;;17.00;16.20;;;;;26.08;nan;99235.41;5089400;28;8827;-71
2022/07/31 01:58:34;;;;;;;;;16.80;15.40;;;;;26.13;nan;99227.09;5085676;28;8815;-71
2022/07/31 02:01:09;;;;;;;;;19.20;17.80;;;;;26.21;nan;99219.38;5068887;28;8839;-74
2022/07/31 02:03:42;;;;;;;;;16.80;16.80;;;;;26.42;nan;99219.66;5069018;28;8896;-72
2022/07/31 02:06:19;;;;;;;;;15.80;15.80;;;;;26.58;nan;99220.28;5083724;27;8898;-73
2022/07/31 02:08:51;;;;;;;;;17.40;17.40;;;;;26.53;nan;99225.09;5119669;27;8883;-72
2022/07/31 02:11:22;;;;;;;;;15.00;15.00;;;;;26.41;nan;99224.16;5128013;27;8849;-73
2022/07/31 02:13:53;;;;;;;;;13.20;11.60;;;;;26.18;nan;99214.25;5110702;27;8871;-71
2022/07/31 02:16:26;;;;;;;;;16.60;15.80;;;;;26.30;nan;99224.09;5128800;27;8942;-72
2022/07/31 02:19:05;;;;;;;;;14.60;14.60;;;;;26.40;nan;99225.13;5131016;27;8842;-72
2022/07/31 02:21:35;;;;;;;;;17.20;17.00;;;;;26.32;nan;99224.81;5149587;27;8850;-72
2022/07/31 02:24:03;;;;;;;;;18.00;17.40;;;;;26.30;nan;99231.25;5136069;27;8849;-72
2022/07/31 02:26:34;;;;;;;;;18.00;18.00;;;;;26.54;nan;99233.97;5110249;27;8857;-73
2022/07/31 02:29:04;;;;;;;;;17.40;17.20;;;;;26.16;nan;99240.22;5110408;27;8857;-72
2022/07/31 02:31:35;;;;;;;;;18.40;17.00;;;;;26.45;nan;99241.69;5059631;27;8830;-73
2022/07/31 02:34:05;;;;;;;;;18.00;17.00;;;;;26.51;nan;99240.41;5128908;27;8829;-71
2022/07/31 02:36:35;;;;;;;;;15.20;15.20;;;;;26.62;nan;99237.84;5109850;27;8837;-71
2022/07/31 02:39:08;;;;;;;;;19.40;18.20;;;;;25.87;nan;99232.38;5110387;27;8841;-74
2022/07/31 02:41:36;;;;;;;;;14.00;14.00;;;;;26.17;nan;99239.28;5127646;27;8843;-73
2022/07/31 02:44:05;;;;;;;;;15.20;15.20;;;;;25.70;nan;99224.69;5104460;28;8875;-73
2022/07/31 02:46:37;;;;;;;;;13.40;13.40;;;;;25.85;nan;99223.63;5087065;28;8951;-71
2022/07/31 02:49:06;;;;;;;;;14.80;14.80;;;;;25.54;nan;99225.72;5087031;28;8855;-71
2022/07/31 02:51:35;;;;;;;;;13.60;13.20;;;;;25.82;nan;99229.16;5087791;28;8875;-71
2022/07/31 02:54:11;;;;;;;;;19.20;17.80;;;;;25.70;nan;99233.53;5087292;28;8863;-73
2022/07/31 02:56:41;;;;;;;;;15.80;15.40;;;;;25.80;nan;99223.97;5104557;28;8856;-70
2022/07/31 02:59:10;;;;;;;;;14.20;14.20;;;;;25.98;nan;99229.88;5052508;28;8860;-72
2022/07/31 03:01:59;;;;;;;;;14.00;14.00;;;;;25.98;nan;99234.34;5087332;28;8945;-72
2022/07/31 03:04:30;;;;;;;;;13.40;13.40;;;;;26.07;nan;99233.72;5087150;28;8864;-71
2022/07/31 03:06:59;;;;;;;;;15.20;15.20;;;;;25.90;nan;99234.84;5087260;28;8928;-73
2022/07/31 03:09:29;;;;;;;;;14.80;14.20;;;;;26.00;nan;99235.94;5104403;28;8871;-73
2022/07/31 03:12:38;;;;;;;;;14.80;14.60;;;;;25.79;nan;99232.06;5020920;28;8860;-74
2022/07/31 03:15:10;;;;;;;;;17.60;16.40;;;;;26.08;nan;99230.06;5041517;28;8863;-73
2022/07/31 03:17:43;;;;;;;;;14.20;14.20;;;;;25.85;nan;99234.31;5048320;28;8974;-71
2022/07/31 03:20:16;;;;;;;;;16.40;16.40;;;;;25.38;nan;99238.38;5064439;28;8878;-71
2022/07/31 03:22:46;;;;;;;;;17.00;16.00;;;;;25.32;nan;99241.47;5064768;28;8844;-70
2022/07/31 03:25:16;;;;;;;;;16.00;16.00;;;;;24.80;nan;99241.22;5064672;28;8879;-73
2022/07/31 03:27:49;;;;;;;;;17.80;16.40;;;;;25.14;nan;99243.50;5064540;28;8859;-73
2022/07/31 03:30:23;;;;;;;;;17.20;16.00;;;;;25.31;nan;99239.75;5063241;28;9617;-71
2022/07/31 03:32:57;;;;;;;;;18.60;15.40;;;;;25.32;nan;99241.47;5048431;28;8864;-72
2022/07/31 03:35:26;;;;;;;;;15.00;15.00;;;;;25.52;nan;99242.78;5064615;28;8901;-73
2022/07/31 03:37:56;;;;;;;;;19.20;16.80;;;;;25.64;nan;99248.16;5064109;28;8848;-73
2022/07/31 03:40:25;;;;;;;;;76.33;70.00;;;;;25.93;nan;99250.69;5047690;28;8898;-71
2022/07/31 03:42:56;;;;;;;;;17.60;16.60;;;;;25.53;nan;99250.72;5077518;27;9268;-72
2022/07/31 03:45:26;;;;;;;;;15.20;14.20;;;;;25.66;nan;99251.59;5108970;27;8846;-71
2022/07/31 03:47:56;;;;;;;;;15.00;14.60;;;;;25.49;nan;99250.06;5125980;27;9621;-70
2022/07/31 03:50:27;;;;;;;;;17.80;17.60;;;;;25.44;nan;99246.88;5130408;27;8855;-72
2022/07/31 03:52:57;;;;;;;;;8.20;7.40;;;;;25.52;nan;99257.03;5148976;27;9651;-72
2022/07/31 03:55:27;;;;;;;;;14.40;14.40;;;;;25.91;nan;99244.56;5130341;27;8827;-72
2022/07/31 03:57:57;;;;;;;;;18.00;16.20;;;;;25.75;nan;99249.28;5130443;27;9596;-71
2022/07/31 04:00:27;;;;;;;;;17.40;16.00;;;;;26.08;nan;99251.44;5114154;27;8966;-73
2022/07/31 04:02:58;;;;;;;;;16.60;16.60;;;;;25.21;nan;99250.16;5114438;27;9681;-73
2022/07/31 04:06:03;;;;;;;;;16.40;16.40;;;;;25.93;nan;99252.53;5067665;28;8932;-73
2022/07/31 04:08:33;;;;;;;;;18.00;18.00;;;;;26.11;nan;99248.56;5050795;28;8979;-71
2022/07/31 04:11:01;;;;;;;;;16.00;15.00;;;;;26.06;nan;99256.06;5067836;28;8863;-72
2022/07/31 04:13:30;;;;;;;;;31.40;28.60;;;;;26.32;nan;99254.22;5050907;28;9025;-71
2022/07/31 04:15:58;;;;;;;;;47.50;40.25;;;;;26.45;nan;99256.91;5051079;28;8863;-71
2022/07/31 04:18:28;;;;;;;;;22.80;21.40;;;;;26.56;nan;99259.66;5068804;28;8852;-71
2022/07/31 04:20:57;;;;;;;;;19.00;19.00;;;;;26.65;nan;99263.50;5026081;28;8883;-72
2022/07/31 04:23:26;;;;;;;;;17.20;17.20;;;;;26.52;nan;99260.84;5009045;28;8873;-71
2022/07/31 04:26:19;;;;;;;;;15.80;15.80;;;;;26.55;nan;99259.78;5026345;28;8876;-73
2022/07/31 04:29:01;;;;;;;;;20.60;20.60;;;;;26.16;nan;99265.16;4994546;28;8865;-72
2022/07/31 04:31:32;;;;;;;;;18.00;17.20;;;;;26.11;nan;99261.94;5009700;28;8892;-70
2022/07/31 04:34:02;;;;;;;;;18.00;18.00;;;;;26.38;nan;99264.47;5025780;28;8873;-72
2022/07/31 04:36:31;;;;;;;;;17.40;16.20;;;;;26.48;nan;99256.66;5008447;28;9757;-72
2022/07/31 04:39:02;;;;;;;;;17.40;17.20;;;;;26.06;nan;99259.56;5025812;28;8892;-72
2022/07/31 04:41:31;;;;;;;;;18.00;16.80;;;;;26.30;nan;99263.34;5033029;28;8843;-72
2022/07/31 04:43:59;;;;;;;;;18.80;18.00;;;;;25.91;nan;99262.44;5048779;28;8918;-71
2022/07/31 04:46:42;;;;;;;;;17.20;16.00;;;;;25.97;nan;99262.03;5082266;28;8843;-71
2022/07/31 04:49:13;;;;;;;;;18.80;18.20;;;;;26.25;nan;99260.97;5049134;28;8875;-72
2022/07/31 04:51:43;;;;;;;;;21.20;20.80;;;;;26.21;nan;99264.81;5085513;27;8858;-73
2022/07/31 04:54:12;;;;;;;;;19.20;19.00;;;;;26.49;nan;99255.72;5111590;27;8851;-71
2022/07/31 04:56:44;;;;;;;;;20.60;20.00;;;;;25.61;nan;99264.38;5114047;27;9028;-74
2022/07/31 04:59:15;;;;;;;;;58.00;47.25;;;;;26.07;nan;99260.44;5139546;27;8806;-72
2022/07/31 05:01:47;;;;;;;;;18.80;18.80;;;;;26.31;nan;99259.69;5127303;27;8885;-71
2022/07/31 05:04:21;;;;;;;;;31.20;30.20;;;;;26.37;nan;99260.13;5130149;27;8955;-72
2022/07/31 05:06:52;;;;;;;;;19.60;18.60;;;;;26.09;nan;99258.53;5126823;27;8862;-72
2022/07/31 05:09:23;;;;;;;;;22.80;21.40;;;;;26.19;nan;99262.25;5126401;27;8861;-73
2022/07/31 05:11:56;;;;;;;;;20.60;19.40;;;;;26.09;nan;99263.00;5105134;28;8884;-73
2022/07/31 05:14:25;;;;;;;;;21.20;21.00;;;;;26.20;nan;99265.78;5087403;28;9557;-72
2022/07/31 05:16:54;;;;;;;;;20.60;19.60;;;;;26.01;nan;99266.19;5088164;28;8944;-73
2022/07/31 05:19:28;;;;;;;;;19.20;18.00;;;;;26.37;nan;99270.81;5088194;28;8841;-70
2022/07/31 05:22:15;;;;;;;;;68.00;55.75;;;;;25.85;nan;99277.06;5104884;28;8837;-73
2022/07/31 05:25:05;;;;;;;;;22.60;19.80;;;;;25.56;nan;99266.53;5103637;28;8845;-72
2022/07/31 05:27:34;;;;;;;;;17.40;16.40;;;;;25.64;nan;99277.53;5086464;28;8893;-72
2022/07/31 05:30:06;;;;;;;;;19.60;17.40;;;;;24.95;nan;99282.03;5037843;28;8840;-72
2022/07/31 05:32:34;;;;;;;;;17.80;17.60;;;;;26.01;nan;99275.09;5087722;28;8857;-74
2022/07/31 05:35:05;;;;;;;;;16.20;16.00;;;;;25.53;nan;99279.22;5120719;27;9693;-71
2022/07/31 05:37:34;;;;;;;;;20.20;19.20;;;;;26.09;nan;99282.56;5088002;28;8857;-72
2022/07/31 05:40:06;;;;;;;;;15.40;15.00;;;;;26.39;nan;99278.69;5082931;28;8929;-72
2022/07/31 05:42:54;;;;;;;;;17.00;17.00;;;;;26.37;nan;99278.84;5109127;27;8984;-72
2022/07/31 05:45:40;;;;;;;;;18.00;17.00;;;;;26.06;nan;99274.75;5076157;27;8922;-73
2022/07/31 05:48:09;;;;;;;;;18.40;17.40;;;;;26.25;nan;99283.19;5117186;27;8863;-72
2022/07/31 05:50:42;;;;;;;;;16.40;16.40;;;;;25.76;nan;99283.88;5110031;27;8844;-71
2022/07/31 05:53:13;;;;;;;;;18.00;16.40;;;;;26.70;nan;99281.94;5106249;28;8841;-72
2022/07/31 05:55:47;;;;;;;;;17.80;17.40;;;;;26.40;nan;99281.28;5107606;27;8849;-71
2022/07/31 05:58:36;;;;;;;;;19.60;18.80;;;;;25.93;nan;99285.44;5080178;28;8821;-71
2022/07/31 06:01:05;;;;;;;;;14.20;14.20;;;;;26.24;nan;99278.00;5065677;28;8889;-73
2022/07/31 06:03:35;;;;;;;;;18.60;17.00;;;;;26.06;nan;99282.78;5065253;28;8872;-72
2022/07/31 06:06:23;;;;;;;;;16.00;16.00;;;;;25.93;nan;99288.09;5064038;28;8990;-73
2022/07/31 06:08:51;;;;;;;;;18.20;18.20;;;;;25.90;nan;99284.75;5050614;28;8936;-72
2022/07/31 06:11:20;;;;;;;;;16.40;16.40;;;;;26.70;nan;99280.09;5060222;28;8857;-72
2022/07/31 06:13:49;;;;;;;;;20.00;17.00;;;;;26.71;nan;99295.19;5063595;28;8888;-74
2022/07/31 06:16:29;;;;;;;;;16.80;16.40;;;;;26.55;nan;99291.88;5063122;28;8857;-72
2022/07/31 06:18:58;;;;;;;;;16.20;16.20;;;;;27.29;nan;99289.25;5066652;28;8861;-78
2022/07/31 06:21:29;;;;;;;;;15.40;15.40;;;;;26.87;nan;99289.59;5069538;28;9732;-84
2022/07/31 06:23:58;;;;;;;;;20.40;18.80;;;;;26.96;nan;99288.06;5047563;28;8893;-73
2022/07/31 06:26:36;;;;;;;;;19.80;19.80;;;;;26.79;nan;99289.28;5047622;28;9455;-75
2022/07/31 06:29:06;;;;;;;;;17.80;17.60;;;;;27.14;nan;99285.88;5064441;28;8856;-73
2022/07/31 06:31:34;;;;;;;;;16.20;16.20;;;;;27.05;nan;99290.06;5027225;28;8921;-75
2022/07/31 06:34:03;;;;;;;;;20.60;18.60;;;;;26.65;nan;99295.63;5047110;28;8868;-77
2022/07/31 06:36:40;;;;;;;;;18.80;18.80;;;;;26.83;nan;99296.13;5093929;27;8987;-74
2022/07/31 06:39:13;;;;;;;;;17.40;17.40;;;;;27.35;nan;99295.03;5075530;27;8824;-74
2022/07/31 06:42:18;;;;;;;;;16.20;15.40;;;;;27.44;nan;99290.81;5124725;27;8891;-77
2022/07/31 06:45:05;;;;;;;;;14.00;14.00;;;;;27.64;nan;99288.44;5081152;27;8868;-72
2022/07/31 06:47:52;;;;;;;;;15.00;14.60;;;;;28.09;nan;99294.84;5100605;27;8849;-72
2022/07/31 06:50:46;;;;;;;;;17.00;16.80;;;;;27.13;nan;99293.03;5107261;27;8841;-72
2022/07/31 06:53:32;;;;;;;;;18.20;18.20;;;;;27.05;nan;99290.06;5107362;27;8950;-75
2022/07/31 06:56:01;;;;;;;;;18.00;17.80;;;;;26.95;nan;99283.69;5107301;27;8861;-71
2022/07/31 06:58:30;;;;;;;;;17.80;16.00;;;;;27.23;nan;99293.22;5100671;28;8861;-73
2022/07/31 07:00:59;;;;;;;;;14.60;14.20;;;;;27.59;nan;99294.16;5085907;28;8924;-72
2022/07/31 07:03:28;;;;;;;;;17.20;16.00;;;;;27.53;nan;99291.94;5124652;27;8947;-82
2022/07/31 07:05:57;;;;;;;;;22.00;20.40;;;;;27.46;nan;99288.84;5082024;28;8946;-80
2022/07/31 07:08:26;;;;;;;;;15.00;13.40;;;;;27.68;nan;99280.06;5087546;28;8855;-84
2022/07/31 07:11:11;;;;;;;;;16.20;16.20;;;;;28.12;nan;99281.19;5090574;28;8865;-82
2022/07/31 07:13:41;;;;;;;;;19.20;18.20;;;;;27.41;nan;99291.91;5100098;27;8846;-80
2022/07/31 07:16:15;;;;;;;;;17.00;16.40;;;;;26.50;nan;99299.34;5095274;27;8957;-80
2022/07/31 07:18:44;;;;;;;;;16.00;15.80;;;;;26.76;nan;99293.03;5052178;27;8835;-80
2022/07/31 07:21:13;;;;;;;;;18.80;18.00;;;;;26.83;nan;99291.63;5099383;27;8865;-79
2022/07/31 07:23:42;;;;;;;;;14.20;14.20;;;;;26.49;nan;99294.97;5110661;27;9592;-80
2022/07/31 07:26:20;;;;;;;;;18.80;18.80;;;;;26.73;nan;99285.25;5096474;27;10190;-79
2022/07/31 07:28:49;;;;;;;;;15.40;15.40;;;;;27.65;nan;99280.28;5113726;28;8932;-79
2022/07/31 07:31:18;;;;;;;;;16.60;16.00;;;;;27.54;nan;99281.13;5073876;27;8907;-79
2022/07/31 07:33:50;;;;;;;;;15.80;15.60;;;;;27.28;nan;99274.16;5065042;28;8866;-80
2022/07/31 07:36:22;;;;;;;;;13.80;13.80;;;;;27.54;nan;99274.88;5053949;28;8919;-80
2022/07/31 07:38:57;;;;;;;;;16.80;15.00;;;;;27.28;nan;99280.38;5077080;28;8854;-80
2022/07/31 07:41:27;;;;;;;;;16.60;14.40;;;;;27.25;nan;99277.03;5075345;28;9634;-81
2022/07/31 07:43:55;;;;;;;;;17.20;16.40;;;;;26.80;nan;99277.63;5090217;28;8842;-80
2022/07/31 07:46:27;;;;;;;;;18.00;17.40;;;;;27.36;nan;99274.47;5068318;28;8858;-78
2022/07/31 07:49:02;;;;;;;;;15.00;15.00;;;;;28.05;nan;99266.53;5088407;28;8928;-81
2022/07/31 07:51:46;;;;;;;;;16.40;15.40;;;;;28.04;nan;99269.38;5052489;28;8821;-81
2022/07/31 07:54:50;;;;;;;;;16.40;16.40;;;;;27.46;nan;99279.97;5009289;28;8941;-79
2022/07/31 07:57:24;;;;;;;;;18.00;18.00;;;;;27.20;nan;99275.56;5023355;28;8878;-78
2022/07/31 08:00:13;;;;;;;;;15.20;14.20;;;;;27.69;nan;99267.53;5006399;28;8977;-80
2022/07/31 08:02:45;;;;;;;;;16.00;14.60;;;;;27.51;nan;99273.31;5008553;28;8902;-78
2022/07/31 08:05:38;;;;;;;;;14.00;14.00;;;;;28.56;nan;99265.28;5052898;28;8857;-78
2022/07/31 08:08:07;;;;;;;;;14.00;13.40;;;;;28.13;nan;99276.69;5019084;28;8879;-80
2022/07/31 08:10:39;;;;;;;;;14.40;13.40;;;;;28.74;nan;99257.59;5073190;28;8833;-80
2022/07/31 08:13:17;;;;;;;;;13.40;13.40;;;;;29.23;nan;99256.28;5052832;28;8844;-79
2022/07/31 08:16:06;;;;;;;;;11.00;11.00;;;;;28.08;nan;99254.75;4984693;28;9013;-81
2022/07/31 08:18:42;;;;;;;;;10.60;10.60;;;;;27.69;nan;99256.81;4958547;28;8972;-80
2022/07/31 08:21:12;;;;;;;;;16.00;15.00;;;;;28.34;nan;99258.91;4987083;28;9038;-79
2022/07/31 08:23:41;;;;;;;;;11.80;11.80;;;;;28.16;nan;99253.16;4951765;28;8895;-80
2022/07/31 08:26:10;;;;;;;;;12.20;12.20;;;;;28.14;nan;99248.91;4964791;28;8872;-80
2022/07/31 08:28:41;;;;;;;;;14.00;13.40;;;;;28.17;nan;99251.34;4941133;28;8863;-80
2022/07/31 08:31:19;;;;;;;;;10.20;9.40;;;;;29.08;nan;99250.31;4965648;28;8838;-78
2022/07/31 08:34:07;;;;;;;;;13.80;13.80;;;;;29.22;nan;99243.81;5046821;28;8869;-80
2022/07/31 08:36:37;;;;;;;;;16.00;14.20;;;;;28.91;nan;99253.53;5013333;28;8869;-81
2022/07/31 08:39:06;;;;;;;;;12.40;11.20;;;;;28.42;nan;99239.53;5012739;28;9782;-81
2022/07/31 08:41:51;;;;;;;;;12.40;12.40;;;;;29.48;nan;99244.34;5001430;28;8856;-78
2022/07/31 08:44:21;;;;;;;;;9.60;9.60;;;;;28.87;nan;99249.41;5047056;28;8827;-80
2022/07/31 08:46:57;;;;;;;;;13.20;12.60;;;;;28.99;nan;99242.16;4981121;28;8947;-81
2022/07/31 08:49:30;;;;;;;;;9.80;9.80;;;;;29.68;nan;99236.41;5031191;28;8874;-80
2022/07/31 08:52:01;;;;;;;;;11.60;10.60;;;;;29.68;nan;99234.59;5014660;28;8850;-80
2022/07/31 08:55:01;;;;;;;;;21.40;21.40;;;;;29.15;nan;99232.75;5086438;28;8831;-79
2022/07/31 08:57:30;;;;;;;;;13.60;13.60;;;;;29.64;nan;99230.47;5084245;28;8872;-80
2022/07/31 09:00:00;;;;;;;;;15.40;14.40;;;;;29.30;nan;99227.06;5068741;28;8942;-81
2022/07/31 09:02:31;;;;;;;;;11.20;11.20;;;;;29.38;nan;99230.00;5020169;28;8852;-78
2022/07/31 09:05:25;;;;;;;;;9.20;9.20;;;;;28.70;nan;99229.31;5070044;28;8839;-81
2022/07/31 09:07:55;;;;;;;;;9.60;9.60;;;;;29.04;nan;99230.06;5069429;28;8855;-79
2022/07/31 09:10:25;;;;;;;;;11.40;11.40;;;;;29.68;nan;99228.34;5052660;28;8843;-78
2022/07/31 09:12:57;;;;;;;;;13.00;12.00;;;;;29.50;nan;99214.66;5067090;28;8835;-80
2022/07/31 09:15:30;;;;;;;;;10.20;10.20;;;;;30.58;nan;99225.06;5069798;28;8855;-81
2022/07/31 09:18:03;;;;;;;;;12.20;12.00;;;;;29.02;nan;99228.47;5053446;28;8867;-78
2022/07/31 09:20:32;;;;;;;;;10.80;10.80;;;;;29.71;nan;99231.63;5060908;28;8853;-79
2022/07/31 09:23:05;;;;;;;;;10.20;10.20;;;;;29.89;nan;99213.13;5029966;28;8985;-80
2022/07/31 09:25:36;;;;;;;;;11.80;11.80;;;;;30.70;nan;99215.06;5070300;28;8871;-79
2022/07/31 09:28:07;;;;;;;;;9.40;9.40;;;;;30.24;nan;99222.63;5053348;28;9632;-79
2022/07/31 09:30:39;;;;;;;;;11.80;11.80;;;;;29.74;nan;99212.59;5055465;27;9052;-81
2022/07/31 09:33:43;;;;;;;;;11.60;11.60;;;;;28.92;nan;99223.88;5106156;27;8999;-79
2022/07/31 09:36:42;;;;;;;;;7.40;7.40;;;;;29.17;nan;99213.84;5124090;27;8870;-81
2022/07/31 09:39:31;;;;;;;;;9.80;9.80;;;;;29.61;nan;99208.38;5120752;27;8814;-80
2022/07/31 09:42:21;;;;;;;;;11.40;9.80;;;;;29.95;nan;99205.50;5100233;27;8846;-80
2022/07/31 09:45:03;;;;;;;;;11.60;11.60;;;;;29.33;nan;99208.88;5125546;27;8894;-77
2022/07/31 09:47:36;;;;;;;;;9.20;9.20;;;;;30.06;nan;99202.75;5077487;27;8843;-79
2022/07/31 09:50:07;;;;;;;;;11.40;11.40;;;;;29.74;nan;99204.53;5111735;27;8850;-78
2022/07/31 09:52:36;;;;;;;;;11.80;11.80;;;;;29.00;nan;99215.19;5066745;28;8904;-81
2022/07/31 09:55:07;;;;;;;;;7.00;7.00;;;;;28.65;nan;99199.28;5072795;27;8846;-79
2022/07/31 09:57:52;;;;;;;;;12.40;11.20;;;;;28.41;nan;99202.09;5144365;27;8859;-79
2022/07/31 10:00:23;;;;;;;;;8.80;8.80;;;;;28.51;nan;99213.81;5111010;27;8826;-79
2022/07/31 10:02:55;;;;;;;;;10.00;10.00;;;;;28.74;nan;99207.44;5130330;27;8846;-81
2022/07/31 10:05:27;;;;;;;;;8.00;7.80;;;;;28.58;nan;99185.50;5117711;27;8915;-81
2022/07/31 10:08:00;;;;;;;;;10.80;10.80;;;;;29.44;nan;99194.53;5113492;27;9061;-81
2022/07/31 10:10:50;;;;;;;;;12.40;11.80;;;;;29.43;nan;99200.03;5124809;27;8842;-82
2022/07/31 10:13:24;;;;;;;;;12.40;11.40;;;;;29.88;nan;99181.81;5109206;27;8841;-81
2022/07/31 10:15:59;;;;;;;;;10.20;9.40;;;;;30.35;nan;99183.22;5119907;27;8878;-82
2022/07/31 10:19:02;;;;;;;;;11.00;11.00;;;;;30.54;nan;99182.41;5109577;27;8858;-81
2022/07/31 10:22:00;;;;;;;;;8.00;8.00;;;;;29.74;nan;99191.09;5078906;28;8849;-82
2022/07/31 10:24:33;;;;;;;;;10.40;10.40;;;;;29.25;nan;99186.34;5103822;27;8953;-80
2022/07/31 10:27:02;;;;;;;;;9.20;9.20;;;;;30.26;nan;99183.00;5093866;27;8843;-82
2022/07/31 10:29:37;;;;;;;;;12.00;10.80;;;;;30.05;nan;99190.28;5120674;27;8849;-77
2022/07/31 10:32:07;;;;;;;;;9.80;9.80;;;;;30.38;nan;99177.53;5089834;27;8855;-75
2022/07/31 10:34:45;;;;;;;;;12.80;11.00;;;;;29.73;nan;99184.00;5074176;27;8939;-78
2022/07/31 10:37:57;;;;;;;;;13.40;11.40;;;;;29.06;nan;99177.09;5106407;27;8843;-77
2022/07/31 10:40:58;;;;;;;;;9.20;8.60;;;;;29.79;nan;99168.34;5023477;28;8862;-76
2022/07/31 10:43:30;;;;;;;;;6.80;6.80;;;;;29.85;nan;99170.47;5018998;28;8861;-76
2022/07/31 10:46:32;;;;;;;;;10.80;10.80;;;;;30.51;nan;99179.03;5005144;28;8850;-77
2022/07/31 10:49:19;;;;;;;;;10.20;10.20;;;;;30.04;nan;99184.06;5003850;28;8922;-77
2022/07/31 10:52:01;;;;;;;;;7.80;7.80;;;;;29.90;nan;99173.63;4990472;28;8858;-76
2022/07/31 10:54:49;;;;;;;;;11.80;10.60;;;;;29.69;nan;99169.09;5006649;28;9070;-75
2022/07/31 10:58:07;;;;;;;;;7.40;7.40;;;;;29.45;nan;99177.44;4952419;28;8870;-76
2022/07/31 11:01:10;;;;;;;;;11.00;10.40;;;;;30.32;nan;99170.88;4900462;29;8890;-81
2022/07/31 11:03:55;;;;;;;;;9.00;9.00;;;;;30.32;nan;99162.78;4886079;29;8891;-79
2022/07/31 11:06:39;;;;;;;;;10.40;10.40;;;;;30.66;nan;99175.91;4886783;29;8881;-80
2022/07/31 11:09:29;;;;;;;;;8.60;8.60;;;;;30.46;nan;99170.50;4893300;29;8943;-82
2022/07/31 11:12:17;;;;;;;;;6.60;6.60;;;;;30.39;nan;99184.63;4881823;29;8975;-82
2022/07/31 11:14:52;;;;;;;;;9.60;9.60;;;;;30.60;nan;99171.94;4906620;29;8878;-81
2022/07/31 11:17:32;;;;;;;;;7.20;7.20;;;;;31.13;nan;99159.97;4932902;28;8832;-81
2022/07/31 11:20:27;;;;;;;;;8.40;8.40;;;;;30.76;nan;99184.03;4957564;28;9038;-82
2022/07/31 11:23:02;;;;;;;;;9.00;9.00;;;;;30.26;nan;99164.16;4956251;28;9583;-80
2022/07/31 11:25:35;;;;;;;;;8.80;7.80;;;;;30.23;nan;99163.59;4956750;28;8979;-81
2022/07/31 11:28:13;;;;;;;;;6.60;6.60;;;;;30.64;nan;99165.31;4986196;28;8828;-80
2022/07/31 11:30:49;;;;;;;;;7.00;7.00;;;;;30.17;nan;99164.13;5051369;28;8929;-82
2022/07/31 11:33:29;;;;;;;;;6.80;6.80;;;;;30.06;nan;99171.31;4968306;28;8981;-83
2022/07/31 11:36:09;;;;;;;;;8.20;8.20;;;;;30.16;nan;99171.34;5056660;28;8886;-80
2022/07/31 11:38:40;;;;;;;;;8.40;6.60;;;;;30.67;nan;99148.88;5093326;28;8895;-80
2022/07/31 11:41:11;;;;;;;;;5.80;5.80;;;;;30.30;nan;99157.53;5075604;28;8836;-82
2022/07/31 11:43:44;;;;;;;;;6.00;5.60;;;;;30.49;nan;99167.53;5093600;28;8851;-82
2022/07/31 11:46:19;;;;;;;;;7.00;7.00;;;;;30.28;nan;99150.56;5089167;28;8849;-82
2022/07/31 11:48:47;;;;;;;;;7.00;7.00;;;;;30.06;nan;99148.97;5078321;28;8948;-85
2022/07/31 11:51:18;;;;;;;;;7.40;6.60;;;;;30.29;nan;99158.53;5103276;28;8863;-82
2022/07/31 11:53:47;;;;;;;;;6.40;6.40;;;;;30.79;nan;99143.34;5095489;28;8848;-84
2022/07/31 11:56:22;;;;;;;;;6.40;6.40;;;;;30.78;nan;99133.59;5093785;28;8841;-81
2022/07/31 11:58:52;;;;;;;;;4.00;4.00;;;;;30.71;nan;99152.97;5050380;28;8993;-81
2022/07/31 12:01:26;;;;;;;;;4.60;4.60;;;;;31.38;nan;99142.41;5054272;28;8944;-81
2022/07/31 12:03:56;;;;;;;;;5.60;5.60;;;;;31.65;nan;99140.81;5033900;28;8973;-82
2022/07/31 12:06:25;;;;;;;;;7.20;7.20;;;;;31.89;nan;99134.94;5063883;28;8960;-81
2022/07/31 12:08:54;;;;;;;;;8.20;7.00;;;;;31.92;nan;99140.00;5011259;28;8966;-82
2022/07/31 12:11:24;;;;;;;;;7.00;6.20;;;;;31.58;nan;99154.00;4962555;28;9069;-79
2022/07/31 12:13:53;;;;;;;;;7.00;5.40;;;;;31.12;nan;99152.06;4994188;28;8926;-80
2022/07/31 12:16:21;;;;;;;;;6.00;6.00;;;;;31.56;nan;99139.84;5011027;28;8840;-81
2022/07/31 12:18:52;;;;;;;;;6.60;6.60;;;;;31.41;nan;99143.94;4978851;28;8887;-81
2022/07/31 12:21:30;;;;;;;;;5.00;5.00;;;;;31.48;nan;99131.63;4995296;28;8986;-80